MRLBMROC

Guest
Details From MRLB - Daniel Oduber Quiros Intl
To MROC - San Jose Juan Santamaria Intl
Flight Number -
Tags Generated
Created
Modified
Stats Distance 87 nm / 161 km
Max Altitude 0 ft / 0 m
Waypoints 2
Social Downloads 5
Likes 0
Share VATSIM

Download

Looking for another format? Having issues loading an existing format? Contact us
Advertisement - Login to hide

Notes

Generated

Route

MRLB MROC

ID Type Via Altitude Latitude Longitude Leg Dist Tot Dist Heading (true) Name
O MRLB APT - 0 ft / 0 m 10.58905˚ -85.55629˚ - 0 nm - -
O MROC APT - 0 ft / 0 m 9.98900˚ -84.22186˚ 86 nm 86 nm 114° / 115° -

Altitude Profile

Advertisement - Login to hide

MRLB

Details ICAO MRLB (LIR)
Name Daniel Oduber Quiros Intl
Region Costa Rica
Timezone America/Costa_Rica (UTC-6.0)
Stats Elevation 270 ft / 82 m (AMSL)
Location 10.593289° -85.544410°
Runways 1
Magnetic Variation 1.105° W

METAR

MRLB 251500Z 29003KT 9999 SCT025 BKN200 27/24 A2986 NOSIG

Decode

TAF

TAF TAF MRLB 251100Z 2512/2612 26005KT 9999 FEW030 TX33/2519Z TN22/2610Z TEMPO 2508/2512 5000 RA OVC100 TEMPO 2519/2524 SHRA FEW020TCU

Decode

Departure Runways

ID Width Length Bearing (true) Bearing (mag) Surface Threshold Offset Overrun Length
07 148 ft / 45 m 9,068 ft / 2,764 m 70.05° 71.15° Asphalt 0 ft / 0 m 0 ft / 0 m
25 148 ft / 45 m 9,068 ft / 2,764 m 250.05° 251.15° Asphalt 0 ft / 0 m 0 ft / 0 m

MROC

Details ICAO MROC (SJO)
Name San Jose Juan Santamaria Intl
Region Costa Rica
Timezone America/Costa_Rica (UTC-6.0)
Stats Elevation 3,021 ft / 921 m (AMSL)
Location 9.993927° -84.208884°
Runways 1
Magnetic Variation 1.783° W

METAR

MROC 251500Z 25006KT 230V290 9999 FEW040 SCT250 26/20 A3002 NOSIG

Decode

TAF

TAF MROC 251100Z 2512/2612 05006KT 9999 FEW030 SCT100 TX28/2518Z TN19/2610Z BECMG 2513/2515 24007KT TEMPO 2518/2523 5000 TSRA FEW015CB TEMPO 2602/2606 3000 RA BR BKN015

Decode

Destination Runways

ID Width Length Bearing (true) Bearing (mag) Surface Threshold Offset Overrun Length
07 151 ft / 46 m 9,994 ft / 3,046 m 68.91° 70.69° Asphalt 0 ft / 0 m 200 ft / 61 m
25 151 ft / 46 m 9,994 ft / 3,046 m 248.92° 250.70° Asphalt 1,969 ft / 600 m 200 ft / 61 m

Approach Navaids

Runway Type Ident Frequency Range Bearing (true) Bearing (mag) Slope Elevation
07 Localiser IOCO 109.50 MHz 18 nm / 33 km 68.89° 70.68° - 930 ft / 283 m (AMSL)
07 Glidescope IOCO 109.50 MHz 10 nm / 19 km 68.91° 70.70° 3.00° 930 ft / 283 m (AMSL)
07 DME IOCO 109.50 MHz 18 nm / 33 km - - - 930 ft / 283 m (AMSL)

Popular Alternatives